Time;durP1;ratioP1;P1;durP2;ratioP2;P2;SDS_P1;SDS_P2;PMS_P1;PMS_P2;Temp;Humidity;BMP_temperature;BMP_pressure;BME280_temperature;BME280_humidity;BME280_pressure;Samples;Min_cycle;Max_cycle;Signal;HPM_P1;HPM_P2
2022/08/30 00:01:29;;;;;;;3.03;2.10;;;;;;;;;;5048669;28;20193;-64
2022/08/30 00:04:00;;;;;;;5.43;2.60;;;;;;;;;;5046060;28;20907;-63
2022/08/30 00:06:30;;;;;;;4.20;2.40;;;;;;;;;;5019626;28;20190;-64
2022/08/30 00:09:06;;;;;;;4.73;2.57;;;;;;;;;;5032666;28;20210;-64
2022/08/30 00:11:38;;;;;;;3.53;2.40;;;;;;;;;;5049039;28;20207;-64
2022/08/30 00:14:10;;;;;;;5.17;2.63;;;;;;;;;;5029121;28;20641;-64
2022/08/30 00:16:41;;;;;;;3.70;2.47;;;;;;;;;;5030357;28;20257;-64
2022/08/30 00:19:10;;;;;;;7.73;3.00;;;;;;;;;;5049368;28;20215;-65
2022/08/30 00:21:41;;;;;;;4.10;2.63;;;;;;;;;;5043216;28;20228;-64
2022/08/30 00:24:12;;;;;;;2.93;2.30;;;;;;;;;;5050245;28;20203;-65
2022/08/30 00:26:42;;;;;;;2.67;2.20;;;;;;;;;;5031303;28;20182;-64
2022/08/30 00:29:12;;;;;;;4.23;2.30;;;;;;;;;;5034806;28;20310;-64
2022/08/30 00:31:43;;;;;;;3.53;2.40;;;;;;;;;;5042680;28;20222;-64
2022/08/30 00:34:15;;;;;;;3.57;2.43;;;;;;;;;;5034753;28;20640;-64
2022/08/30 00:36:47;;;;;;;2.07;1.90;;;;;;;;;;5038309;28;20210;-64
2022/08/30 00:39:21;;;;;;;3.67;2.37;;;;;;;;;;5045380;28;20316;-64
2022/08/30 00:41:53;;;;;;;3.53;2.47;;;;;;;;;;5034987;28;20660;-65
2022/08/30 00:44:24;;;;;;;4.57;2.80;;;;;;;;;;5013148;28;20649;-64
2022/08/30 00:46:54;;;;;;;4.03;2.23;;;;;;;;;;5050235;28;20225;-64
2022/08/30 00:49:22;;;;;;;3.30;2.00;;;;;;;;;;5022422;28;20833;-64
2022/08/30 00:51:53;;;;;;;5.20;2.23;;;;;;;;;;5049665;28;20225;-64
2022/08/30 00:54:26;;;;;;;4.67;2.10;;;;;;;;;;5052214;28;20254;-64
2022/08/30 00:56:59;;;;;;;3.33;2.40;;;;;;;;;;5035887;28;20206;-64
2022/08/30 00:59:33;;;;;;;3.90;2.50;;;;;;;;;;5037461;28;20215;-64
2022/08/30 01:02:03;;;;;;;3.63;2.23;;;;;;;;;;5045400;28;20198;-64
2022/08/30 01:04:35;;;;;;;5.07;2.43;;;;;;;;;;5053714;28;20198;-64
2022/08/30 01:07:04;;;;;;;3.03;2.40;;;;;;;;;;5039388;28;20195;-65
2022/08/30 01:09:38;;;;;;;3.50;2.10;;;;;;;;;;5036918;28;20210;-64
2022/08/30 01:12:22;;;;;;;4.10;2.20;;;;;;;;;;5034232;28;20222;-64
2022/08/30 01:14:52;;;;;;;3.67;2.20;;;;;;;;;;5047325;28;20202;-64
2022/08/30 01:17:25;;;;;;;3.80;2.20;;;;;;;;;;5043421;28;20198;-63
2022/08/30 01:20:00;;;;;;;2.73;2.10;;;;;;;;;;5043517;28;20241;-63
2022/08/30 01:22:48;;;;;;;2.70;2.20;;;;;;;;;;5044388;28;20248;-64
2022/08/30 01:25:22;;;;;;;5.23;2.40;;;;;;;;;;5048905;28;20194;-64
2022/08/30 01:27:55;;;;;;;3.13;2.00;;;;;;;;;;5035085;28;20202;-64
2022/08/30 01:30:30;;;;;;;3.30;2.33;;;;;;;;;;5057809;28;20195;-64
2022/08/30 01:33:04;;;;;;;3.77;2.50;;;;;;;;;;5032162;28;20272;-63
2022/08/30 01:35:57;;;;;;;3.40;2.40;;;;;;;;;;5055449;28;20230;-64
2022/08/30 01:38:32;;;;;;;3.03;2.50;;;;;;;;;;5009786;28;20242;-64
2022/08/30 01:41:10;;;;;;;2.90;2.00;;;;;;;;;;5026864;28;20222;-64
2022/08/30 01:43:40;;;;;;;2.80;2.30;;;;;;;;;;5039675;28;20245;-64
2022/08/30 01:46:13;;;;;;;3.00;2.20;;;;;;;;;;5042810;28;20195;-64
2022/08/30 01:48:48;;;;;;;3.00;2.10;;;;;;;;;;5043765;28;20284;-64
2022/08/30 01:51:22;;;;;;;4.73;2.43;;;;;;;;;;5026073;28;20551;-64
2022/08/30 01:53:52;;;;;;;2.47;2.27;;;;;;;;;;5009343;28;20215;-64
2022/08/30 01:56:22;;;;;;;8.63;2.27;;;;;;;;;;5024822;28;20215;-64
2022/08/30 01:58:54;;;;;;;3.47;2.27;;;;;;;;;;5041109;28;20242;-64
2022/08/30 02:01:31;;;;;;;5.67;2.20;;;;;;;;;;5048707;28;20839;-64
2022/08/30 02:04:02;;;;;;;3.20;2.07;;;;;;;;;;5048945;28;20252;-64
2022/08/30 02:06:35;;;;;;;4.80;2.37;;;;;;;;;;5046653;28;20190;-64
2022/08/30 02:09:10;;;;;;;3.60;2.53;;;;;;;;;;5042572;28;20213;-64
2022/08/30 02:11:43;;;;;;;2.57;2.30;;;;;;;;;;5049564;28;20210;-64
2022/08/30 02:14:14;;;;;;;2.23;2.00;;;;;;;;;;5045678;28;20199;-64
2022/08/30 02:16:51;;;;;;;2.27;2.00;;;;;;;;;;5042406;28;20202;-64
2022/08/30 02:19:26;;;;;;;2.67;2.03;;;;;;;;;;5060123;28;20702;-64
2022/08/30 02:21:55;;;;;;;2.70;2.07;;;;;;;;;;5048272;28;20260;-64
2022/08/30 02:24:23;;;;;;;3.73;2.13;;;;;;;;;;5063251;28;20336;-64
2022/08/30 02:26:56;;;;;;;3.93;2.20;;;;;;;;;;5046167;28;20679;-64
2022/08/30 02:29:26;;;;;;;3.10;2.13;;;;;;;;;;5050414;28;20201;-64
2022/08/30 02:31:55;;;;;;;3.00;2.13;;;;;;;;;;5043329;28;20214;-64
2022/08/30 02:34:23;;;;;;;2.10;1.80;;;;;;;;;;5065546;28;20213;-64
2022/08/30 02:36:55;;;;;;;2.37;1.90;;;;;;;;;;5042185;28;20191;-64
2022/08/30 02:39:24;;;;;;;3.00;1.90;;;;;;;;;;5047894;28;20691;-64
2022/08/30 02:42:07;;;;;;;2.70;1.93;;;;;;;;;;5053963;28;20269;-63
2022/08/30 02:44:34;;;;;;;3.23;2.43;;;;;;;;;;5041340;28;20210;-63
2022/08/30 02:47:06;;;;;;;6.87;2.20;;;;;;;;;;5045158;28;20190;-64
2022/08/30 02:49:38;;;;;;;4.10;1.90;;;;;;;;;;5046119;28;20728;-64
2022/08/30 02:52:08;;;;;;;2.63;2.20;;;;;;;;;;5044201;28;20205;-64
2022/08/30 02:54:40;;;;;;;2.73;1.83;;;;;;;;;;5047356;28;20194;-64
2022/08/30 02:57:12;;;;;;;2.63;1.80;;;;;;;;;;5039483;28;20261;-64
2022/08/30 02:59:48;;;;;;;6.00;2.17;;;;;;;;;;5021980;28;20571;-64
2022/08/30 03:02:18;;;;;;;3.77;2.20;;;;;;;;;;5045919;28;20270;-64
2022/08/30 03:04:48;;;;;;;3.20;2.07;;;;;;;;;;5061894;28;20206;-64
2022/08/30 03:07:15;;;;;;;1.97;1.87;;;;;;;;;;5033611;28;20264;-64
2022/08/30 03:09:44;;;;;;;3.30;2.50;;;;;;;;;;5062633;28;20202;-64
2022/08/30 03:12:24;;;;;;;2.60;2.17;;;;;;;;;;5046892;28;20218;-64
2022/08/30 03:14:56;;;;;;;3.30;2.40;;;;;;;;;;5026621;28;20240;-64
2022/08/30 03:17:26;;;;;;;3.40;2.30;;;;;;;;;;5061532;28;20207;-64
2022/08/30 03:20:12;;;;;;;3.03;2.03;;;;;;;;;;5043589;28;20258;-64
2022/08/30 03:22:43;;;;;;;2.50;1.90;;;;;;;;;;5058879;28;20225;-64
2022/08/30 03:25:14;;;;;;;1.70;1.60;;;;;;;;;;5040179;28;20194;-64
2022/08/30 03:27:46;;;;;;;2.63;2.00;;;;;;;;;;5041825;28;20226;-64
2022/08/30 03:30:19;;;;;;;3.40;1.97;;;;;;;;;;5046828;28;20853;-64
2022/08/30 03:32:48;;;;;;;4.67;2.20;;;;;;;;;;5044270;28;20223;-64
2022/08/30 03:35:19;;;;;;;3.57;2.10;;;;;;;;;;5046463;28;20194;-63
2022/08/30 03:37:49;;;;;;;2.30;1.77;;;;;;;;;;5046402;28;20292;-64
2022/08/30 03:40:25;;;;;;;3.20;2.03;;;;;;;;;;5040765;28;20199;-64
2022/08/30 03:42:54;;;;;;;2.87;1.90;;;;;;;;;;5037249;28;20226;-63
2022/08/30 03:45:21;;;;;;;3.53;1.83;;;;;;;;;;5032033;28;20206;-64
2022/08/30 03:47:52;;;;;;;3.73;1.87;;;;;;;;;;5053968;28;20656;-63
2022/08/30 03:50:23;;;;;;;2.67;1.83;;;;;;;;;;5018760;28;20252;-63
2022/08/30 03:52:52;;;;;;;4.33;2.10;;;;;;;;;;5037224;28;20284;-63
2022/08/30 03:55:23;;;;;;;3.43;1.80;;;;;;;;;;5042437;28;20250;-64
2022/08/30 03:57:56;;;;;;;5.30;2.20;;;;;;;;;;5034738;28;20189;-64
2022/08/30 04:00:26;;;;;;;4.33;2.00;;;;;;;;;;5037114;28;20268;-64
2022/08/30 04:02:57;;;;;;;3.17;1.90;;;;;;;;;;5033931;28;20217;-64
2022/08/30 04:05:30;;;;;;;2.27;1.87;;;;;;;;;;5045915;28;20194;-64
2022/08/30 04:08:19;;;;;;;3.10;1.70;;;;;;;;;;5016465;28;20211;-64
2022/08/30 04:10:52;;;;;;;2.57;1.87;;;;;;;;;;5060045;28;20675;-64
2022/08/30 04:13:24;;;;;;;3.20;1.70;;;;;;;;;;5035701;28;20191;-64
2022/08/30 04:16:10;;;;;;;3.77;1.60;;;;;;;;;;5050654;28;20827;-64
2022/08/30 04:18:42;;;;;;;2.83;1.73;;;;;;;;;;5050393;28;20570;-64
2022/08/30 04:21:14;;;;;;;1.63;1.33;;;;;;;;;;5038995;28;20202;-64
2022/08/30 04:23:46;;;;;;;2.73;2.13;;;;;;;;;;5037021;28;20190;-64
2022/08/30 04:26:21;;;;;;;3.60;2.60;;;;;;;;;;5055482;28;20366;-64
2022/08/30 04:28:58;;;;;;;2.30;2.00;;;;;;;;;;5045163;28;20615;-64
2022/08/30 04:31:31;;;;;;;2.90;2.10;;;;;;;;;;5032898;28;20225;-64
2022/08/30 04:34:03;;;;;;;1.80;1.70;;;;;;;;;;5035319;28;20206;-63
2022/08/30 04:36:43;;;;;;;2.20;2.00;;;;;;;;;;5035596;28;20199;-64
2022/08/30 04:39:15;;;;;;;4.37;2.20;;;;;;;;;;5041696;28;20242;-64
2022/08/30 04:41:47;;;;;;;2.30;2.03;;;;;;;;;;5049306;28;20676;-64
2022/08/30 04:44:17;;;;;;;3.03;2.13;;;;;;;;;;5058267;28;20293;-64
2022/08/30 04:46:55;;;;;;;2.73;1.80;;;;;;;;;;5038990;28;20816;-64
2022/08/30 04:49:32;;;;;;;2.20;1.93;;;;;;;;;;5040193;28;20190;-64
2022/08/30 04:52:05;;;;;;;3.13;2.00;;;;;;;;;;5015849;28;20286;-64
2022/08/30 04:54:34;;;;;;;2.67;2.03;;;;;;;;;;5035442;28;20221;-64
2022/08/30 04:57:04;;;;;;;2.37;2.10;;;;;;;;;;5025314;28;20215;-63
2022/08/30 04:59:42;;;;;;;2.93;2.00;;;;;;;;;;5033430;28;20656;-64
2022/08/30 05:02:13;;;;;;;2.90;2.10;;;;;;;;;;5037536;28;20190;-64
2022/08/30 05:07:42;;;;;;;3.17;2.07;;;;;;;;;;5034948;28;20711;-64
2022/08/30 05:10:15;;;;;;;2.73;2.50;;;;;;;;;;5039524;28;20254;-64
2022/08/30 05:12:51;;;;;;;2.70;2.20;;;;;;;;;;5041097;28;20195;-64
2022/08/30 05:15:32;;;;;;;3.53;2.60;;;;;;;;;;5039892;28;20195;-64
2022/08/30 05:18:06;;;;;;;5.40;2.50;;;;;;;;;;5061449;28;20246;-64
2022/08/30 05:20:43;;;;;;;4.23;2.47;;;;;;;;;;5042083;28;20211;-63
2022/08/30 05:23:14;;;;;;;2.53;2.07;;;;;;;;;;5038164;28;20899;-64
2022/08/30 05:25:47;;;;;;;4.57;2.00;;;;;;;;;;5044359;28;20206;-63
2022/08/30 05:28:19;;;;;;;2.83;2.10;;;;;;;;;;5043714;28;20203;-64
2022/08/30 05:30:55;;;;;;;2.07;1.80;;;;;;;;;;5027301;28;20264;-64
2022/08/30 05:33:27;;;;;;;2.43;2.20;;;;;;;;;;5047489;28;20207;-64
2022/08/30 05:36:08;;;;;;;5.20;1.93;;;;;;;;;;5039673;28;20183;-64
2022/08/30 05:38:39;;;;;;;9.63;2.03;;;;;;;;;;5063855;28;20231;-64
2022/08/30 05:41:11;;;;;;;4.37;2.13;;;;;;;;;;5010928;28;20834;-64
2022/08/30 05:43:49;;;;;;;2.90;2.20;;;;;;;;;;5039889;28;20220;-64
2022/08/30 05:46:20;;;;;;;2.90;2.00;;;;;;;;;;5033925;28;20208;-64
2022/08/30 05:48:51;;;;;;;3.00;2.80;;;;;;;;;;5010160;28;20606;-64
2022/08/30 05:51:25;;;;;;;2.50;2.27;;;;;;;;;;5027994;28;20198;-64
2022/08/30 05:53:55;;;;;;;4.63;2.97;;;;;;;;;;5042836;28;20205;-64
2022/08/30 05:56:30;;;;;;;2.63;2.07;;;;;;;;;;5034433;28;20247;-64
2022/08/30 05:59:00;;;;;;;2.63;2.43;;;;;;;;;;5023621;28;20202;-64
2022/08/30 06:01:31;;;;;;;4.13;2.50;;;;;;;;;;5026968;28;20214;-64
2022/08/30 06:04:02;;;;;;;2.47;2.27;;;;;;;;;;5034596;28;20217;-64
2022/08/30 06:06:32;;;;;;;4.10;2.60;;;;;;;;;;5055606;28;20221;-64
2022/08/30 06:09:08;;;;;;;3.03;2.40;;;;;;;;;;5029042;28;20206;-64
2022/08/30 06:11:37;;;;;;;4.20;2.40;;;;;;;;;;5012374;28;20210;-64
2022/08/30 06:14:10;;;;;;;2.97;2.30;;;;;;;;;;5050941;28;20292;-64
2022/08/30 06:16:44;;;;;;;5.63;2.73;;;;;;;;;;5057805;28;20690;-64
2022/08/30 06:19:29;;;;;;;5.47;3.63;;;;;;;;;;5054143;28;20248;-63
2022/08/30 06:22:03;;;;;;;4.37;3.50;;;;;;;;;;5060959;28;20216;-63
2022/08/30 06:24:53;;;;;;;3.43;2.83;;;;;;;;;;5055965;28;20213;-64
2022/08/30 06:27:26;;;;;;;3.73;2.73;;;;;;;;;;5043595;28;20275;-64
2022/08/30 06:30:00;;;;;;;3.17;2.33;;;;;;;;;;5061473;28;20603;-64
2022/08/30 06:32:32;;;;;;;2.60;2.40;;;;;;;;;;5057885;28;20232;-64
2022/08/30 06:35:01;;;;;;;3.13;2.50;;;;;;;;;;5034855;28;20217;-64
2022/08/30 06:37:34;;;;;;;4.10;2.97;;;;;;;;;;5054111;28;20263;-64
2022/08/30 06:40:03;;;;;;;2.60;2.30;;;;;;;;;;5039082;28;20699;-67
2022/08/30 06:42:32;;;;;;;4.10;2.50;;;;;;;;;;5019848;28;20766;-68
2022/08/30 06:45:05;;;;;;;3.10;2.30;;;;;;;;;;5050554;28;20278;-66
2022/08/30 06:47:40;;;;;;;6.00;3.20;;;;;;;;;;5040793;28;20214;-70
2022/08/30 06:50:16;;;;;;;3.73;2.87;;;;;;;;;;5045483;28;20207;-69
2022/08/30 06:52:47;;;;;;;4.43;2.80;;;;;;;;;;5053830;28;20226;-70
2022/08/30 06:55:17;;;;;;;3.80;3.03;;;;;;;;;;5036337;28;20221;-70
2022/08/30 06:57:51;;;;;;;3.03;2.60;;;;;;;;;;5051504;28;20201;-69
2022/08/30 07:00:27;;;;;;;3.07;2.37;;;;;;;;;;5038372;28;20222;-68
2022/08/30 07:03:01;;;;;;;2.50;2.17;;;;;;;;;;5028864;28;20214;-67
2022/08/30 07:05:35;;;;;;;5.23;2.97;;;;;;;;;;5040947;28;20202;-70
2022/08/30 07:08:07;;;;;;;4.20;2.57;;;;;;;;;;5032753;28;20218;-67
2022/08/30 07:10:40;;;;;;;4.27;3.20;;;;;;;;;;5019563;28;20700;-68
2022/08/30 07:13:13;;;;;;;3.03;2.73;;;;;;;;;;5049503;28;20224;-67
2022/08/30 07:15:49;;;;;;;4.50;2.57;;;;;;;;;;5053184;28;20197;-69
2022/08/30 07:21:18;;;;;;;3.73;3.10;;;;;;;;;;5031065;28;20287;-70
2022/08/30 07:23:49;;;;;;;3.73;3.00;;;;;;;;;;5030470;28;20706;-69
2022/08/30 07:26:25;;;;;;;3.07;2.87;;;;;;;;;;5044668;28;20210;-69
2022/08/30 07:28:57;;;;;;;4.63;3.33;;;;;;;;;;5038367;28;20197;-69
2022/08/30 07:31:31;;;;;;;5.00;2.53;;;;;;;;;;5050581;28;20227;-68
2022/08/30 07:34:05;;;;;;;3.07;2.80;;;;;;;;;;5027932;28;20204;-70
2022/08/30 07:36:36;;;;;;;3.37;3.00;;;;;;;;;;5064551;28;20202;-68
2022/08/30 07:39:04;;;;;;;3.17;2.87;;;;;;;;;;5065483;28;20276;-72
2022/08/30 07:41:37;;;;;;;4.40;3.00;;;;;;;;;;5075070;28;20223;-68
2022/08/30 07:44:18;;;;;;;3.10;2.63;;;;;;;;;;5039280;28;20293;-68
2022/08/30 07:46:51;;;;;;;3.00;2.40;;;;;;;;;;5044296;28;20249;-70
2022/08/30 07:49:22;;;;;;;3.00;2.70;;;;;;;;;;5046735;28;20194;-69
2022/08/30 07:51:54;;;;;;;3.57;2.87;;;;;;;;;;5035897;28;20255;-70
2022/08/30 07:54:27;;;;;;;2.80;2.60;;;;;;;;;;5043989;28;20199;-67
2022/08/30 07:56:57;;;;;;;4.07;3.03;;;;;;;;;;5037794;28;20260;-66
2022/08/30 07:59:27;;;;;;;2.90;2.37;;;;;;;;;;5049196;28;20198;-70
2022/08/30 08:02:06;;;;;;;3.47;2.27;;;;;;;;;;5074679;28;20671;-70
2022/08/30 08:04:47;;;;;;;4.33;2.27;;;;;;;;;;5043910;28;20252;-66
2022/08/30 08:07:14;;;;;;;2.80;2.17;;;;;;;;;;5040778;28;20729;-68
2022/08/30 08:09:45;;;;;;;3.90;2.70;;;;;;;;;;5049279;28;20433;-71
2022/08/30 08:12:14;;;;;;;5.23;2.70;;;;;;;;;;5043064;28;20202;-67
2022/08/30 08:14:44;;;;;;;4.93;3.60;;;;;;;;;;5042231;28;20187;-65
2022/08/30 08:17:26;;;;;;;4.13;2.87;;;;;;;;;;5047593;28;20205;-67
2022/08/30 08:19:58;;;;;;;3.87;2.40;;;;;;;;;;5043395;28;20214;-71
2022/08/30 08:22:27;;;;;;;4.87;2.73;;;;;;;;;;5045509;28;20187;-69
2022/08/30 08:24:58;;;;;;;6.17;2.77;;;;;;;;;;5036202;28;20186;-72
2022/08/30 08:27:30;;;;;;;5.43;2.60;;;;;;;;;;5041095;28;20195;-73
2022/08/30 08:30:02;;;;;;;6.97;2.53;;;;;;;;;;5059540;28;20210;-70
2022/08/30 08:32:33;;;;;;;4.67;2.47;;;;;;;;;;5032611;28;20207;-69
2022/08/30 08:35:04;;;;;;;3.73;2.73;;;;;;;;;;5034269;28;20199;-70
2022/08/30 08:37:38;;;;;;;6.90;2.60;;;;;;;;;;5045683;28;20628;-70
2022/08/30 08:40:13;;;;;;;4.70;2.40;;;;;;;;;;5058192;28;20222;-69
2022/08/30 08:43:02;;;;;;;4.43;2.57;;;;;;;;;;5044574;28;20236;-70
2022/08/30 08:45:55;;;;;;;7.97;3.30;;;;;;;;;;5045655;28;20190;-66
2022/08/30 08:48:45;;;;;;;5.73;2.50;;;;;;;;;;5045430;28;20227;-70
2022/08/30 08:54:45;;;;;;;3.73;1.70;;;;;;;;;;5073632;28;20210;-69
2022/08/30 08:57:16;;;;;;;4.63;2.03;;;;;;;;;;5031917;28;20830;-72
2022/08/30 08:59:53;;;;;;;4.23;1.90;;;;;;;;;;5078170;28;20647;-70
2022/08/30 09:02:29;;;;;;;2.73;1.70;;;;;;;;;;5046417;28;20221;-71
2022/08/30 09:05:02;;;;;;;2.77;1.97;;;;;;;;;;5043348;28;20240;-71
2022/08/30 09:07:33;;;;;;;2.67;1.83;;;;;;;;;;5042775;28;20207;-69
2022/08/30 09:10:04;;;;;;;8.30;2.17;;;;;;;;;;5076572;28;20190;-69
2022/08/30 09:12:35;;;;;;;3.40;1.87;;;;;;;;;;5046269;28;20194;-68
2022/08/30 09:15:09;;;;;;;2.87;1.70;;;;;;;;;;5072142;28;20253;-68
2022/08/30 09:17:52;;;;;;;2.00;1.80;;;;;;;;;;5041939;28;20517;-68
2022/08/30 09:20:37;;;;;;;6.60;2.17;;;;;;;;;;5065132;28;20243;-70
2022/08/30 09:23:22;;;;;;;4.40;2.00;;;;;;;;;;5042259;28;20195;-70
2022/08/30 09:25:56;;;;;;;2.87;1.53;;;;;;;;;;5046565;28;20658;-71
2022/08/30 09:28:31;;;;;;;3.43;1.87;;;;;;;;;;5047885;28;20208;-69
2022/08/30 09:31:26;;;;;;;2.20;1.70;;;;;;;;;;5036619;28;20559;-65
2022/08/30 09:33:54;;;;;;;3.10;1.50;;;;;;;;;;5047036;28;20218;-68
2022/08/30 09:36:44;;;;;;;1.77;1.30;;;;;;;;;;5045017;28;20194;-71
2022/08/30 09:39:40;;;;;;;1.83;1.30;;;;;;;;;;5050047;28;20234;-66
2022/08/30 09:42:13;;;;;;;1.57;1.40;;;;;;;;;;5041858;28;20234;-68
2022/08/30 09:45:19;;;;;;;3.03;1.10;;;;;;;;;;5041526;28;20242;-66
2022/08/30 09:47:53;;;;;;;1.23;1.10;;;;;;;;;;5043219;28;20206;-67
2022/08/30 09:50:26;;;;;;;2.43;1.30;;;;;;;;;;5044994;28;20523;-66
2022/08/30 09:53:10;;;;;;;1.57;1.00;;;;;;;;;;5024867;28;20238;-64
2022/08/30 09:56:06;;;;;;;1.40;1.00;;;;;;;;;;5032691;28;20211;-64
2022/08/30 09:58:57;;;;;;;1.10;1.00;;;;;;;;;;5045626;28;20251;-64
2022/08/30 10:01:38;;;;;;;2.20;1.00;;;;;;;;;;5033283;28;20215;-65
2022/08/30 10:04:17;;;;;;;1.70;0.93;;;;;;;;;;5036859;28;20380;-65
2022/08/30 10:06:58;;;;;;;1.10;1.00;;;;;;;;;;5040153;28;20692;-65
2022/08/30 10:09:53;;;;;;;1.40;1.27;;;;;;;;;;5036880;28;20219;-65
2022/08/30 10:12:37;;;;;;;3.30;1.20;;;;;;;;;;5038075;28;20202;-65
2022/08/30 10:15:10;;;;;;;1.63;1.37;;;;;;;;;;5035482;28;20740;-65
2022/08/30 10:17:54;;;;;;;4.30;1.67;;;;;;;;;;5043240;28;20206;-65
2022/08/30 10:21:02;;;;;;;1.63;1.50;;;;;;;;;;5034096;28;20796;-65
2022/08/30 10:23:42;;;;;;;1.93;1.50;;;;;;;;;;5034843;28;20220;-64
2022/08/30 10:26:34;;;;;;;2.50;1.30;;;;;;;;;;5052963;28;20839;-65
2022/08/30 10:29:24;;;;;;;6.03;1.10;;;;;;;;;;5043822;28;20202;-67
2022/08/30 10:32:17;;;;;;;1.60;1.20;;;;;;;;;;5026656;28;20775;-68
2022/08/30 10:35:13;;;;;;;1.20;1.10;;;;;;;;;;5051474;28;20202;-70
2022/08/30 10:37:54;;;;;;;3.63;1.30;;;;;;;;;;5036310;28;20221;-70
2022/08/30 10:43:37;;;;;;;1.67;1.40;;;;;;;;;;5038798;28;20261;-70
2022/08/30 10:46:16;;;;;;;3.37;1.37;;;;;;;;;;5043086;28;20552;-69
2022/08/30 10:48:48;;;;;;;1.50;1.40;;;;;;;;;;5042003;28;20205;-70
2022/08/30 10:51:30;;;;;;;1.93;1.20;;;;;;;;;;5041309;28;20195;-68
2022/08/30 10:54:19;;;;;;;2.40;1.23;;;;;;;;;;5055722;28;20210;-69
2022/08/30 10:56:52;;;;;;;3.80;1.17;;;;;;;;;;5006352;28;20219;-69
2022/08/30 10:59:24;;;;;;;2.43;1.30;;;;;;;;;;5051425;28;20202;-68
2022/08/30 11:02:14;;;;;;;1.93;1.20;;;;;;;;;;5057316;28;20220;-69
2022/08/30 11:04:42;;;;;;;1.80;1.10;;;;;;;;;;5038738;28;20636;-69
2022/08/30 11:07:25;;;;;;;1.90;1.50;;;;;;;;;;5035188;28;20199;-70
2022/08/30 11:10:04;;;;;;;1.40;1.30;;;;;;;;;;5041066;28;20198;-68
2022/08/30 11:12:58;;;;;;;2.70;1.40;;;;;;;;;;5048837;28;20191;-69
2022/08/30 11:15:30;;;;;;;1.40;1.17;;;;;;;;;;5040073;28;20198;-70
2022/08/30 11:17:59;;;;;;;1.73;0.90;;;;;;;;;;5035012;28;20268;-70
2022/08/30 11:20:48;;;;;;;2.77;1.13;;;;;;;;;;5016404;28;20348;-70
2022/08/30 11:23:19;;;;;;;2.33;1.20;;;;;;;;;;5045792;28;20710;-69
2022/08/30 11:26:11;;;;;;;1.63;1.33;;;;;;;;;;5033248;28;20546;-70
2022/08/30 11:28:51;;;;;;;1.57;1.20;;;;;;;;;;5039919;28;20225;-70
2022/08/30 11:31:54;;;;;;;1.30;1.20;;;;;;;;;;5014901;28;20190;-68
2022/08/30 11:34:41;;;;;;;1.60;1.00;;;;;;;;;;5039658;28;20217;-69
2022/08/30 11:37:36;;;;;;;2.30;1.30;;;;;;;;;;5039469;28;20214;-68
2022/08/30 11:40:11;;;;;;;2.17;1.10;;;;;;;;;;5033519;28;20239;-68
2022/08/30 11:42:49;;;;;;;5.43;1.37;;;;;;;;;;5038140;28;20206;-70
2022/08/30 11:45:34;;;;;;;1.50;1.00;;;;;;;;;;5031518;28;20292;-68
2022/08/30 11:48:09;;;;;;;4.20;1.23;;;;;;;;;;5044733;28;20200;-70
2022/08/30 11:50:49;;;;;;;2.03;1.20;;;;;;;;;;5035716;28;20199;-71
2022/08/30 11:53:29;;;;;;;5.60;1.50;;;;;;;;;;5025281;28;20201;-70
2022/08/30 11:56:16;;;;;;;3.40;1.40;;;;;;;;;;5055811;28;20209;-69
2022/08/30 11:58:48;;;;;;;2.97;1.50;;;;;;;;;;5037868;28;20723;-68
2022/08/30 12:01:28;;;;;;;2.07;1.20;;;;;;;;;;5044578;28;20295;-68
2022/08/30 12:04:19;;;;;;;2.30;1.30;;;;;;;;;;5037415;28;20284;-65
2022/08/30 12:06:53;;;;;;;1.40;1.30;;;;;;;;;;5032625;28;20195;-65
2022/08/30 12:09:23;;;;;;;1.40;1.23;;;;;;;;;;5034375;28;20226;-66
2022/08/30 12:12:04;;;;;;;1.20;1.10;;;;;;;;;;5034909;28;20210;-66
2022/08/30 12:14:51;;;;;;;4.20;1.63;;;;;;;;;;5016191;28;20260;-66
2022/08/30 12:20:49;;;;;;;3.40;1.60;;;;;;;;;;5028347;28;20203;-68
2022/08/30 12:23:36;;;;;;;2.80;1.37;;;;;;;;;;5023842;28;20206;-68
2022/08/30 12:26:25;;;;;;;3.87;1.20;;;;;;;;;;5044242;28;20191;-69
2022/08/30 12:29:17;;;;;;;2.70;1.40;;;;;;;;;;5035092;28;20692;-67
2022/08/30 12:32:07;;;;;;;4.37;1.53;;;;;;;;;;5027521;28;20194;-68
2022/08/30 12:34:45;;;;;;;4.83;1.30;;;;;;;;;;5040208;28;20199;-71
2022/08/30 12:37:37;;;;;;;4.93;1.50;;;;;;;;;;5045868;28;20265;-74
2022/08/30 12:40:16;;;;;;;4.03;1.50;;;;;;;;;;5046132;28;20254;-73
2022/08/30 12:42:56;;;;;;;3.77;1.40;;;;;;;;;;5026453;28;20232;-69
2022/08/30 12:45:30;;;;;;;4.87;1.40;;;;;;;;;;5039757;28;20206;-69
2022/08/30 12:48:20;;;;;;;1.90;1.37;;;;;;;;;;5055816;28;20195;-68
2022/08/30 12:50:54;;;;;;;3.20;1.30;;;;;;;;;;5028667;28;20230;-69
2022/08/30 12:53:31;;;;;;;2.27;1.50;;;;;;;;;;5045133;28;20209;-72
2022/08/30 12:56:14;;;;;;;1.70;1.20;;;;;;;;;;5034655;28;20194;-71
2022/08/30 12:58:58;;;;;;;1.43;1.20;;;;;;;;;;5029585;28;20637;-73
2022/08/30 13:01:35;;;;;;;2.70;1.37;;;;;;;;;;5020418;28;20250;-73
2022/08/30 13:04:20;;;;;;;4.00;1.70;;;;;;;;;;5015123;28;20211;-74
2022/08/30 13:06:57;;;;;;;4.53;1.47;;;;;;;;;;5035459;28;20193;-72
2022/08/30 13:09:41;;;;;;;4.87;1.50;;;;;;;;;;5036256;28;20239;-73
2022/08/30 13:12:23;;;;;;;3.03;1.40;;;;;;;;;;5047313;28;20257;-72
2022/08/30 13:15:08;;;;;;;3.07;1.00;;;;;;;;;;5018530;28;20206;-66
2022/08/30 13:17:39;;;;;;;2.50;1.50;;;;;;;;;;5046793;28;20562;-66
2022/08/30 13:20:22;;;;;;;2.47;1.40;;;;;;;;;;5047384;28;20211;-66
2022/08/30 13:23:10;;;;;;;2.63;1.60;;;;;;;;;;5043660;28;20752;-67
2022/08/30 13:25:41;;;;;;;3.60;1.43;;;;;;;;;;5042893;28;20620;-66
2022/08/30 13:28:11;;;;;;;3.27;1.47;;;;;;;;;;5047971;28;20198;-68
2022/08/30 13:30:42;;;;;;;3.57;1.60;;;;;;;;;;4999238;28;20203;-72
2022/08/30 13:33:12;;;;;;;4.07;1.43;;;;;;;;;;5012910;28;20536;-72
2022/08/30 13:35:45;;;;;;;2.07;1.57;;;;;;;;;;5025113;28;20651;-73
2022/08/30 13:38:18;;;;;;;3.20;1.63;;;;;;;;;;5036110;28;20206;-73
2022/08/30 13:40:48;;;;;;;2.60;1.30;;;;;;;;;;5021665;28;20238;-72
2022/08/30 13:43:17;;;;;;;2.77;1.70;;;;;;;;;;5034835;28;20868;-73
2022/08/30 13:45:47;;;;;;;2.20;1.50;;;;;;;;;;5030186;28;20214;-72
2022/08/30 13:48:19;;;;;;;2.00;1.40;;;;;;;;;;5047502;28;20196;-73
2022/08/30 13:50:52;;;;;;;4.30;1.60;;;;;;;;;;5043335;28;20222;-67
2022/08/30 13:53:24;;;;;;;3.33;1.50;;;;;;;;;;5036671;28;20261;-72
2022/08/30 13:56:19;;;;;;;3.47;1.70;;;;;;;;;;5046670;28;20199;-73
2022/08/30 13:58:49;;;;;;;3.83;1.50;;;;;;;;;;5051446;28;20759;-66
2022/08/30 14:01:16;;;;;;;2.43;1.23;;;;;;;;;;5034613;28;20202;-70
2022/08/30 14:03:47;;;;;;;2.13;1.80;;;;;;;;;;5045422;28;20198;-65
2022/08/30 14:06:37;;;;;;;2.33;1.63;;;;;;;;;;5041189;28;20210;-67
2022/08/30 14:09:29;;;;;;;4.23;1.60;;;;;;;;;;5038264;28;20217;-66
2022/08/30 14:12:02;;;;;;;2.83;1.60;;;;;;;;;;5039690;28;20246;-66
2022/08/30 14:14:32;;;;;;;2.77;1.60;;;;;;;;;;5037019;28;20201;-71
2022/08/30 14:17:12;;;;;;;2.63;1.60;;;;;;;;;;5030309;28;20607;-73
2022/08/30 14:19:45;;;;;;;5.43;1.70;;;;;;;;;;5042046;28;20285;-71
2022/08/30 14:22:19;;;;;;;3.83;1.70;;;;;;;;;;5043370;28;20238;-71
2022/08/30 14:24:47;;;;;;;4.97;1.80;;;;;;;;;;5031980;28;20210;-68
2022/08/30 14:27:19;;;;;;;3.37;1.70;;;;;;;;;;5030902;28;20191;-69
2022/08/30 14:30:05;;;;;;;2.60;1.60;;;;;;;;;;5035740;28;20195;-71
2022/08/30 14:32:40;;;;;;;4.77;1.80;;;;;;;;;;5056097;28;20211;-69
2022/08/30 14:35:13;;;;;;;3.83;1.70;;;;;;;;;;5043524;28;20206;-68
2022/08/30 14:37:44;;;;;;;2.47;1.60;;;;;;;;;;5042191;28;20193;-69
2022/08/30 14:40:14;;;;;;;3.53;1.70;;;;;;;;;;5046613;28;20252;-68
2022/08/30 14:42:45;;;;;;;1.77;1.67;;;;;;;;;;5017282;28;20211;-71
2022/08/30 14:45:19;;;;;;;2.80;1.67;;;;;;;;;;5048107;28;20207;-67
2022/08/30 14:48:02;;;;;;;2.40;1.50;;;;;;;;;;5040803;28;20221;-70
2022/08/30 14:50:38;;;;;;;2.70;1.40;;;;;;;;;;5039064;28;20210;-70
2022/08/30 14:53:07;;;;;;;2.97;1.80;;;;;;;;;;5037789;28;20215;-71
2022/08/30 14:55:37;;;;;;;2.40;1.53;;;;;;;;;;5021571;28;20211;-68
2022/08/30 14:58:15;;;;;;;2.83;1.50;;;;;;;;;;5038358;28;20790;-67
2022/08/30 15:00:52;;;;;;;3.37;1.93;;;;;;;;;;5037866;28;20201;-69
2022/08/30 15:03:26;;;;;;;2.63;1.57;;;;;;;;;;5035988;28;20794;-69
2022/08/30 15:05:56;;;;;;;2.07;1.23;;;;;;;;;;5032586;28;20199;-70
2022/08/30 15:08:24;;;;;;;5.63;1.90;;;;;;;;;;5041497;28;20206;-67
2022/08/30 15:11:07;;;;;;;1.60;1.50;;;;;;;;;;5042328;28;20279;-67
2022/08/30 15:13:43;;;;;;;2.00;1.50;;;;;;;;;;5038628;28;20221;-69
2022/08/30 15:16:22;;;;;;;3.63;1.57;;;;;;;;;;5019446;28;20663;-71
2022/08/30 15:18:54;;;;;;;1.87;1.57;;;;;;;;;;5035980;28;20207;-69
2022/08/30 15:21:31;;;;;;;4.73;1.57;;;;;;;;;;5025494;28;20219;-70
2022/08/30 15:24:09;;;;;;;1.57;1.33;;;;;;;;;;5052754;28;20287;-69
2022/08/30 15:26:42;;;;;;;4.43;1.90;;;;;;;;;;5035832;28;20203;-67
2022/08/30 15:29:14;;;;;;;3.53;1.93;;;;;;;;;;5040964;28;20229;-66
2022/08/30 15:31:44;;;;;;;4.77;2.30;;;;;;;;;;5054568;28;20191;-70
2022/08/30 15:34:25;;;;;;;5.97;2.33;;;;;;;;;;5042405;28;20214;-70
2022/08/30 15:37:01;;;;;;;3.33;2.30;;;;;;;;;;5042061;28;20214;-70
2022/08/30 15:39:31;;;;;;;3.43;2.17;;;;;;;;;;5058901;28;20258;-71
2022/08/30 15:42:04;;;;;;;5.37;2.00;;;;;;;;;;5047833;28;20210;-63
2022/08/30 15:44:41;;;;;;;2.10;1.83;;;;;;;;;;5025447;28;20202;-63
2022/08/30 15:47:13;;;;;;;2.40;1.73;;;;;;;;;;5015089;28;20222;-63
2022/08/30 15:49:56;;;;;;;3.70;2.00;;;;;;;;;;5044515;28;20210;-63